createdAt,value
2022-11-17T00:02:12.588Z,9.00
2022-11-17T00:04:43.393Z,9.00
2022-11-17T00:07:14.071Z,9.10
2022-11-17T00:10:03.604Z,9.10
2022-11-17T00:12:51.685Z,9.10
2022-11-17T00:15:22.387Z,9.10
2022-11-17T00:17:59.201Z,9.20
2022-11-17T00:20:47.255Z,9.30
2022-11-17T00:23:17.887Z,9.20
2022-11-17T00:25:48.606Z,9.30
2022-11-17T00:28:19.167Z,9.50
2022-11-17T00:31:27.349Z,9.50
2022-11-17T00:34:07.636Z,9.60
2022-11-17T00:36:40.445Z,9.80
2022-11-17T00:39:12.920Z,9.80
2022-11-17T00:41:44.224Z,9.90
2022-11-17T00:44:15.672Z,10.00
2022-11-17T00:46:46.663Z,10.10
2022-11-17T00:49:17.328Z,10.10
2022-11-17T00:51:47.912Z,10.20
2022-11-17T00:54:18.602Z,10.30
2022-11-17T00:56:49.587Z,10.40
2022-11-17T00:59:20.162Z,10.40
2022-11-17T01:01:50.876Z,10.50
2022-11-17T01:04:21.747Z,10.40
2022-11-17T01:06:52.829Z,10.40
2022-11-17T01:09:25.515Z,10.20
2022-11-17T01:11:56.511Z,10.10
2022-11-17T01:14:29.535Z,10.10
2022-11-17T01:17:00.118Z,10.00
2022-11-17T01:19:30.703Z,10.10
2022-11-17T01:22:01.263Z,10.00
2022-11-17T01:24:33.037Z,9.90
2022-11-17T01:27:03.722Z,9.90
2022-11-17T01:29:34.687Z,9.90
2022-11-17T01:32:05.443Z,9.90
2022-11-17T01:34:36.270Z,9.80
2022-11-17T01:37:21.979Z,9.80
2022-11-17T01:39:52.907Z,9.80
2022-11-17T01:42:25.946Z,9.80
2022-11-17T01:44:59.779Z,9.80
2022-11-17T01:47:42.514Z,9.90
2022-11-17T01:50:19.699Z,9.90
2022-11-17T01:52:52.663Z,10.00
2022-11-17T01:55:26.181Z,10.10
2022-11-17T01:58:00.005Z,10.00
2022-11-17T02:00:31.158Z,9.80
2022-11-17T02:03:02.351Z,9.70
2022-11-17T02:05:38.498Z,9.70
2022-11-17T02:08:10.794Z,9.70
2022-11-17T02:10:43.789Z,9.70
2022-11-17T02:13:14.345Z,9.60
2022-11-17T02:15:44.868Z,9.70
2022-11-17T02:18:16.008Z,9.70
2022-11-17T02:21:04.035Z,9.70
2022-11-17T02:24:10.387Z,9.70
2022-11-17T02:27:14.533Z,9.70
2022-11-17T02:29:48.324Z,9.90
2022-11-17T02:32:22.703Z,10.20
2022-11-17T02:34:56.460Z,10.30
2022-11-17T02:37:30.977Z,10.50
2022-11-17T02:40:04.759Z,10.50
2022-11-17T02:42:55.443Z,10.60
2022-11-17T02:45:29.029Z,10.60
2022-11-17T02:48:01.873Z,10.40
2022-11-17T02:50:33.620Z,10.30
2022-11-17T02:53:04.463Z,10.20
2022-11-17T02:55:38.811Z,10.00
2022-11-17T02:58:13.183Z,9.90
2022-11-17T03:00:46.707Z,9.90
2022-11-17T03:03:24.247Z,9.90
2022-11-17T03:05:58.893Z,9.90
2022-11-17T03:08:33.796Z,9.80
2022-11-17T03:11:07.056Z,9.80
2022-11-17T03:13:42.567Z,9.80
2022-11-17T03:16:18.026Z,9.80
2022-11-17T03:18:53.035Z,9.90
2022-11-17T03:21:26.609Z,10.00
2022-11-17T03:23:59.992Z,10.10
2022-11-17T03:26:50.718Z,10.10
2022-11-17T03:29:24.727Z,10.10
2022-11-17T03:31:58.689Z,10.20
2022-11-17T03:34:32.241Z,10.10
2022-11-17T03:37:06.277Z,10.00
2022-11-17T03:39:38.418Z,10.00
2022-11-17T03:42:12.362Z,10.00
2022-11-17T03:44:45.519Z,10.00
2022-11-17T03:47:18.653Z,10.00
2022-11-17T03:49:52.916Z,10.00
2022-11-17T03:52:25.333Z,10.00
2022-11-17T03:54:56.544Z,10.10
2022-11-17T03:57:30.284Z,10.20
2022-11-17T04:00:04.539Z,10.30
2022-11-17T04:02:35.286Z,10.40
2022-11-17T04:05:06.328Z,10.50
2022-11-17T04:07:40.293Z,10.50
2022-11-17T04:10:13.486Z,10.50
2022-11-17T04:13:01.978Z,10.50
2022-11-17T04:15:50.257Z,10.50
2022-11-17T04:18:21.655Z,10.70
2022-11-17T04:20:53.955Z,10.70
2022-11-17T04:23:25.926Z,10.80
2022-11-17T04:26:17.379Z,10.80
2022-11-17T04:28:50.390Z,10.90
2022-11-17T04:31:23.759Z,11.00
2022-11-17T04:33:56.209Z,11.10
2022-11-17T04:36:28.721Z,11.10
2022-11-17T04:41:57.309Z,11.60
2022-11-17T04:44:29.679Z,11.70
2022-11-17T04:47:03.206Z,11.70
2022-11-17T04:49:35.001Z,11.70
2022-11-17T04:52:06.590Z,11.60
2022-11-17T04:54:37.756Z,11.50
2022-11-17T04:57:08.321Z,11.70
2022-11-17T04:59:38.873Z,11.70
2022-11-17T05:02:09.700Z,11.50
2022-11-17T05:04:58.504Z,11.30
2022-11-17T05:07:29.125Z,11.10
2022-11-17T05:09:59.764Z,11.00
2022-11-17T05:12:49.152Z,11.00
2022-11-17T05:15:21.501Z,11.00
2022-11-17T05:17:52.168Z,11.00
2022-11-17T05:20:22.713Z,11.00
2022-11-17T05:23:10.929Z,11.20
2022-11-17T05:25:41.475Z,11.10
2022-11-17T05:28:13.056Z,11.00
2022-11-17T05:30:43.925Z,11.00
2022-11-17T05:33:14.566Z,11.00
2022-11-17T05:35:45.200Z,11.00
2022-11-17T05:38:15.751Z,10.90
2022-11-17T05:40:46.580Z,10.80
2022-11-17T05:43:17.213Z,10.80
2022-11-17T05:45:48.768Z,10.70
2022-11-17T05:48:19.398Z,10.70
2022-11-17T05:50:50.065Z,10.70
2022-11-17T05:53:20.582Z,10.80
2022-11-17T05:55:51.642Z,10.70
2022-11-17T05:58:25.242Z,10.70
2022-11-17T06:00:58.175Z,10.70
2022-11-17T06:06:10.931Z,10.70
2022-11-17T06:08:41.640Z,10.70
2022-11-17T06:11:12.744Z,10.80
2022-11-17T06:13:43.293Z,10.80
2022-11-17T06:16:16.802Z,10.80
2022-11-17T06:18:50.316Z,10.70
2022-11-17T06:21:21.085Z,10.70
2022-11-17T06:23:52.672Z,10.90
2022-11-17T06:26:23.307Z,10.90
2022-11-17T06:28:54.259Z,10.80
2022-11-17T06:31:26.747Z,10.80
2022-11-17T06:33:58.350Z,10.90
2022-11-17T06:36:28.987Z,10.90
2022-11-17T06:38:59.734Z,11.10
2022-11-17T06:41:30.932Z,11.10
2022-11-17T06:44:02.719Z,11.10
2022-11-17T06:46:35.774Z,10.90
2022-11-17T06:49:09.757Z,10.60
2022-11-17T06:51:44.925Z,10.50
2022-11-17T06:54:14.948Z,10.40
2022-11-17T06:56:46.244Z,10.50
2022-11-17T06:59:17.486Z,10.60
2022-11-17T07:01:48.053Z,10.60
2022-11-17T07:04:18.939Z,10.40
2022-11-17T07:06:49.493Z,10.20
2022-11-17T07:09:20.364Z,10.30
2022-11-17T07:11:50.794Z,10.30
2022-11-17T07:14:22.493Z,10.40
2022-11-17T07:16:52.930Z,10.40
2022-11-17T07:19:23.407Z,10.40
2022-11-17T07:21:53.911Z,10.30
2022-11-17T07:24:24.454Z,10.30
2022-11-17T07:26:54.911Z,10.40
2022-11-17T07:29:25.803Z,10.60
2022-11-17T07:31:56.314Z,10.70
2022-11-17T07:34:26.763Z,10.90
2022-11-17T07:36:57.270Z,11.00
2022-11-17T07:39:27.875Z,11.10
2022-11-17T07:41:58.394Z,11.10
2022-11-17T07:44:28.926Z,11.10
2022-11-17T07:46:59.436Z,11.20
2022-11-17T07:49:30.192Z,11.20
2022-11-17T07:52:00.686Z,11.20
2022-11-17T07:54:31.576Z,11.10
2022-11-17T07:57:02.016Z,11.10
2022-11-17T07:59:32.506Z,11.10
2022-11-17T08:02:03.370Z,11.10
2022-11-17T08:04:33.896Z,11.20
2022-11-17T08:07:04.551Z,11.20
2022-11-17T08:09:35.078Z,11.10
2022-11-17T08:12:06.347Z,11.10
2022-11-17T08:14:36.859Z,11.10
2022-11-17T08:17:07.311Z,11.20
2022-11-17T08:19:37.772Z,11.30
2022-11-17T08:22:08.643Z,11.30
2022-11-17T08:24:39.083Z,11.40
2022-11-17T08:27:10.611Z,11.40
2022-11-17T08:29:41.094Z,11.50
2022-11-17T08:32:11.548Z,11.60
2022-11-17T08:34:42.063Z,11.60
2022-11-17T08:37:12.631Z,11.60
2022-11-17T08:39:43.152Z,11.70
2022-11-17T08:42:13.581Z,11.80
2022-11-17T08:44:44.162Z,11.80
2022-11-17T08:47:14.656Z,11.90
2022-11-17T08:49:45.078Z,11.90
2022-11-17T08:52:15.619Z,11.90
2022-11-17T08:54:46.180Z,11.90
2022-11-17T08:57:16.777Z,11.90
2022-11-17T08:59:47.355Z,11.90
2022-11-17T09:02:18.346Z,12.00
2022-11-17T09:04:48.946Z,12.00
2022-11-17T09:07:19.513Z,12.10
2022-11-17T09:09:50.196Z,12.30
2022-11-17T09:12:20.692Z,12.20
2022-11-17T09:14:51.211Z,12.20
2022-11-17T09:17:21.657Z,12.30
2022-11-17T09:19:52.262Z,12.20
2022-11-17T09:22:22.785Z,12.10
2022-11-17T09:24:53.312Z,12.10
2022-11-17T09:27:23.740Z,12.30
2022-11-17T09:29:54.232Z,12.40
2022-11-17T09:32:24.674Z,12.30
2022-11-17T09:34:55.126Z,12.30
2022-11-17T09:37:26.620Z,12.40
2022-11-17T09:39:57.065Z,12.60
2022-11-17T09:42:27.639Z,12.80
2022-11-17T09:45:01.352Z,13.00
2022-11-17T09:47:36.004Z,12.90
2022-11-17T09:50:11.348Z,13.10
2022-11-17T09:52:45.525Z,13.30
2022-11-17T09:55:21.197Z,13.50
2022-11-17T09:57:55.340Z,13.70
2022-11-17T10:00:26.744Z,14.10
2022-11-17T10:02:57.528Z,14.30
2022-11-17T10:05:30.971Z,14.40
2022-11-17T10:08:06.418Z,14.30
2022-11-17T10:10:41.009Z,14.40
2022-11-17T10:13:15.768Z,14.40
2022-11-17T10:15:49.484Z,14.40
2022-11-17T10:18:19.939Z,14.70
2022-11-17T10:20:50.378Z,14.90
2022-11-17T10:23:23.462Z,15.20
2022-11-17T10:25:59.107Z,15.10
2022-11-17T10:28:32.021Z,15.10
2022-11-17T10:31:04.891Z,15.10
2022-11-17T10:33:41.100Z,15.00
2022-11-17T10:36:20.484Z,15.10
2022-11-17T10:38:53.363Z,15.10
2022-11-17T10:41:27.177Z,15.10
2022-11-17T10:44:01.460Z,15.20
2022-11-17T10:46:43.191Z,15.10
2022-11-17T10:49:05.826Z,15.40
2022-11-17T10:51:36.911Z,15.70
2022-11-17T10:54:14.214Z,15.80
2022-11-17T10:56:47.552Z,15.80
2022-11-17T10:59:20.867Z,15.90
2022-11-17T11:01:53.564Z,15.80
2022-11-17T11:04:33.361Z,15.70
2022-11-17T11:07:12.871Z,15.50
2022-11-17T11:09:48.455Z,15.50
2022-11-17T11:12:23.340Z,15.40
2022-11-17T11:14:57.454Z,15.30
2022-11-17T11:17:30.910Z,15.30
2022-11-17T11:20:02.341Z,15.20
2022-11-17T11:22:38.570Z,15.10
2022-11-17T11:25:20.359Z,14.90
2022-11-17T11:28:06.043Z,14.50
2022-11-17T11:30:39.838Z,14.30
2022-11-17T11:33:18.878Z,14.20
2022-11-17T11:35:58.951Z,14.10
2022-11-17T11:38:53.460Z,14.00
2022-11-17T11:41:43.172Z,14.00
2022-11-17T11:44:27.795Z,14.10
2022-11-17T11:47:03.231Z,14.20
2022-11-17T11:49:37.866Z,14.30
2022-11-17T11:52:12.593Z,14.60
2022-11-17T11:54:50.578Z,14.70
2022-11-17T11:57:21.033Z,14.70
2022-11-17T11:59:59.480Z,14.80
2022-11-17T12:02:31.965Z,15.00
2022-11-17T12:05:08.391Z,15.10
2022-11-17T12:07:42.581Z,15.20
2022-11-17T12:10:17.962Z,15.50
2022-11-17T12:12:49.316Z,15.50
2022-11-17T12:15:39.475Z,15.60
2022-11-17T12:18:15.245Z,15.60
2022-11-17T12:20:58.973Z,15.70
2022-11-17T12:24:00.079Z,15.70
2022-11-17T12:26:32.214Z,15.80
2022-11-17T12:29:28.264Z,15.70
2022-11-17T12:32:00.067Z,15.70
2022-11-17T12:34:35.969Z,15.70
2022-11-17T12:37:27.267Z,15.60
2022-11-17T12:40:00.483Z,15.60
2022-11-17T12:42:32.563Z,15.50
2022-11-17T12:45:08.782Z,15.50
2022-11-17T12:47:41.137Z,15.60
2022-11-17T12:50:48.831Z,15.60
2022-11-17T12:53:34.455Z,15.70
2022-11-17T12:56:20.430Z,15.80
2022-11-17T12:59:02.605Z,15.80
2022-11-17T13:01:39.526Z,15.80
2022-11-17T13:04:14.109Z,15.90
2022-11-17T13:07:02.572Z,15.90
2022-11-17T13:09:35.851Z,16.00
2022-11-17T13:12:08.487Z,16.00
2022-11-17T13:14:42.183Z,16.00
2022-11-17T13:17:13.970Z,16.00
2022-11-17T13:19:45.978Z,16.00
2022-11-17T13:22:19.622Z,16.00
2022-11-17T13:24:53.161Z,16.00
2022-11-17T13:27:28.499Z,16.10
2022-11-17T13:30:16.172Z,16.00
2022-11-17T13:32:46.800Z,16.10
2022-11-17T13:35:26.260Z,16.10
2022-11-17T13:38:09.754Z,16.20
2022-11-17T13:40:42.619Z,16.20
2022-11-17T13:43:17.098Z,16.20
2022-11-17T13:45:47.838Z,16.10
2022-11-17T13:48:35.299Z,15.90
2022-11-17T13:53:56.087Z,15.80
2022-11-17T13:56:32.268Z,15.60
2022-11-17T13:59:05.995Z,15.70
2022-11-17T14:01:36.657Z,15.60
2022-11-17T14:04:20.714Z,15.70
2022-11-17T14:07:00.150Z,15.70
2022-11-17T14:09:34.585Z,15.80
2022-11-17T14:12:10.654Z,15.70
2022-11-17T14:14:46.251Z,15.70
2022-11-17T14:17:20.647Z,15.80
2022-11-17T14:19:51.281Z,15.80
2022-11-17T14:22:31.365Z,15.70
2022-11-17T14:24:58.841Z,15.70
2022-11-17T14:27:41.553Z,15.70
2022-11-17T14:30:15.842Z,15.60
2022-11-17T14:32:46.385Z,15.60
2022-11-17T14:37:49.176Z,15.40
2022-11-17T14:40:20.922Z,15.30
2022-11-17T14:42:51.499Z,15.30
2022-11-17T14:45:22.451Z,15.30
2022-11-17T14:47:52.957Z,15.20
2022-11-17T14:50:23.611Z,15.20
2022-11-17T14:52:54.274Z,15.20
2022-11-17T14:55:26.258Z,15.20
2022-11-17T14:57:56.956Z,15.10
2022-11-17T15:00:28.117Z,15.10
2022-11-17T15:02:58.656Z,15.20
2022-11-17T15:05:30.232Z,15.20
2022-11-17T15:08:01.303Z,15.10
2022-11-17T15:10:31.846Z,15.10
2022-11-17T15:13:02.404Z,14.90
2022-11-17T15:15:33.365Z,14.90
2022-11-17T15:18:04.026Z,14.70
2022-11-17T15:20:34.622Z,14.60
2022-11-17T15:23:05.194Z,14.50
2022-11-17T15:25:37.319Z,14.40
2022-11-17T15:28:08.286Z,14.20
2022-11-17T15:30:39.603Z,14.10
2022-11-17T15:33:10.176Z,14.00
2022-11-17T15:35:40.843Z,14.00
2022-11-17T15:38:11.655Z,13.90
2022-11-17T15:40:42.411Z,13.90
2022-11-17T15:43:13.145Z,13.80
2022-11-17T15:45:43.801Z,13.80
2022-11-17T15:48:18.630Z,13.80
2022-11-17T15:50:46.584Z,13.70
2022-11-17T15:53:17.216Z,13.60
2022-11-17T15:55:47.760Z,13.60
2022-11-17T15:58:18.945Z,13.50
2022-11-17T16:00:49.667Z,13.40
2022-11-17T16:03:20.365Z,13.40
2022-11-17T16:05:50.953Z,13.40
2022-11-17T16:08:21.635Z,13.30
2022-11-17T16:10:52.480Z,13.20
2022-11-17T16:13:23.085Z,13.10
2022-11-17T16:15:54.189Z,13.10
2022-11-17T16:18:25.284Z,13.00
2022-11-17T16:21:00.115Z,13.10
2022-11-17T16:23:28.135Z,12.90
2022-11-17T16:25:58.754Z,13.00
2022-11-17T16:28:29.377Z,13.00
2022-11-17T16:30:59.920Z,13.00
2022-11-17T16:33:30.642Z,13.20
2022-11-17T16:36:08.039Z,13.40
2022-11-17T16:38:49.805Z,13.50
2022-11-17T16:41:10.901Z,13.70
2022-11-17T16:43:44.629Z,13.70
2022-11-17T16:46:19.483Z,13.50
2022-11-17T16:48:51.151Z,13.40
2022-11-17T16:51:22.631Z,13.30
2022-11-17T16:53:58.342Z,13.30
2022-11-17T16:56:29.575Z,13.60
2022-11-17T16:59:00.456Z,13.50
2022-11-17T17:01:33.417Z,13.40
2022-11-17T17:04:06.499Z,13.40
2022-11-17T17:06:39.296Z,13.30
2022-11-17T17:09:11.675Z,13.30
2022-11-17T17:11:42.443Z,13.30
2022-11-17T17:14:16.306Z,13.10
2022-11-17T17:16:46.975Z,13.10
2022-11-17T17:19:18.786Z,13.10
2022-11-17T17:21:49.931Z,13.00
2022-11-17T17:24:20.720Z,13.00
2022-11-17T17:26:51.379Z,13.00
2022-11-17T17:29:22.306Z,13.00
2022-11-17T17:31:52.835Z,12.90
2022-11-17T17:34:23.542Z,12.80
2022-11-17T17:36:54.285Z,12.80
2022-11-17T17:39:24.852Z,12.90
2022-11-17T17:41:55.805Z,12.90
2022-11-17T17:44:26.678Z,12.90
2022-11-17T17:46:57.969Z,12.90
2022-11-17T17:49:28.551Z,12.90
2022-11-17T17:51:59.158Z,12.90
2022-11-17T17:54:29.955Z,12.80
2022-11-17T17:57:00.523Z,12.70
2022-11-17T17:59:31.158Z,12.60
2022-11-17T18:02:01.749Z,12.60
2022-11-17T18:04:32.446Z,12.60
2022-11-17T18:07:03.548Z,12.60
2022-11-17T18:09:34.451Z,12.50
2022-11-17T18:12:05.260Z,12.50
2022-11-17T18:14:35.908Z,12.50
2022-11-17T18:17:06.543Z,12.60
2022-11-17T18:19:37.520Z,12.50
2022-11-17T18:22:08.190Z,12.40
2022-11-17T18:24:38.875Z,12.40
2022-11-17T18:27:09.453Z,12.40
2022-11-17T18:29:40.166Z,12.30
2022-11-17T18:32:10.794Z,12.30
2022-11-17T18:34:42.114Z,12.30
2022-11-17T18:37:12.903Z,12.20
2022-11-17T18:39:43.658Z,12.20
2022-11-17T18:42:14.595Z,12.20
2022-11-17T18:44:45.235Z,12.20
2022-11-17T18:47:15.842Z,12.10
2022-11-17T18:49:46.967Z,12.10
2022-11-17T18:52:17.574Z,12.10
2022-11-17T18:54:48.274Z,12.10
2022-11-17T18:57:19.044Z,12.10
2022-11-17T18:59:49.630Z,12.10
2022-11-17T19:02:20.250Z,12.00
2022-11-17T19:04:50.983Z,12.00
2022-11-17T19:07:21.753Z,12.00
2022-11-17T19:09:52.703Z,12.00
2022-11-17T19:12:23.380Z,12.00
2022-11-17T19:14:54.184Z,11.90
2022-11-17T19:17:24.914Z,11.90
2022-11-17T19:19:55.693Z,11.90
2022-11-17T19:22:26.931Z,11.90
2022-11-17T19:27:34.499Z,11.80
2022-11-17T19:30:05.918Z,11.80
2022-11-17T19:32:36.841Z,11.80
2022-11-17T19:35:15.768Z,11.80
2022-11-17T19:37:41.189Z,11.80
2022-11-17T19:40:13.951Z,11.80
2022-11-17T19:42:44.845Z,11.80
2022-11-17T19:45:16.455Z,11.70
2022-11-17T19:47:47.117Z,11.70
2022-11-17T19:50:19.147Z,11.80
2022-11-17T19:52:49.921Z,11.80
2022-11-17T19:55:20.775Z,11.80
2022-11-17T19:57:51.553Z,11.80
2022-11-17T20:00:23.517Z,11.80
2022-11-17T20:02:54.187Z,11.70
2022-11-17T20:05:25.093Z,11.70
2022-11-17T20:07:55.785Z,11.70
2022-11-17T20:10:26.717Z,11.60
2022-11-17T20:12:57.364Z,11.70
2022-11-17T20:15:34.250Z,11.70
2022-11-17T20:18:00.701Z,11.60
2022-11-17T20:20:31.252Z,11.60
2022-11-17T20:23:01.795Z,11.60
2022-11-17T20:25:32.448Z,11.60
2022-11-17T20:28:03.085Z,11.50
2022-11-17T20:30:33.643Z,11.40
2022-11-17T20:33:04.194Z,11.50
2022-11-17T20:35:36.182Z,11.60
2022-11-17T20:38:07.923Z,11.60
2022-11-17T20:40:39.449Z,11.60
2022-11-17T20:43:10.315Z,11.50
2022-11-17T20:45:40.984Z,11.50
2022-11-17T20:48:11.571Z,11.60
2022-11-17T20:50:42.125Z,11.50
2022-11-17T20:53:12.655Z,11.60
2022-11-17T20:55:43.286Z,11.70
2022-11-17T20:58:13.834Z,11.90
2022-11-17T21:03:21.208Z,11.80
2022-11-17T21:05:59.049Z,11.90
2022-11-17T21:08:32.895Z,11.80
2022-11-17T21:11:04.839Z,11.80
2022-11-17T21:13:36.876Z,11.80
2022-11-17T21:16:10.763Z,11.70
2022-11-17T21:18:43.595Z,11.60
2022-11-17T21:21:14.224Z,11.60
2022-11-17T21:23:45.400Z,11.60
2022-11-17T21:26:17.620Z,11.60
2022-11-17T21:28:48.788Z,11.60
2022-11-17T21:31:20.728Z,11.60
2022-11-17T21:36:33.194Z,11.50
2022-11-17T21:39:03.843Z,11.50
2022-11-17T21:41:37.919Z,11.50
2022-11-17T21:44:08.673Z,11.40
2022-11-17T21:46:39.199Z,11.50
2022-11-17T21:49:09.705Z,11.60
2022-11-17T21:51:40.280Z,11.50
2022-11-17T21:54:11.586Z,11.50
2022-11-17T21:56:42.238Z,11.50
2022-11-17T21:59:16.688Z,11.50
2022-11-17T22:01:47.358Z,11.60
2022-11-17T22:04:19.551Z,11.60
2022-11-17T22:06:50.123Z,11.60
2022-11-17T22:09:20.803Z,11.50
2022-11-17T22:11:52.025Z,11.50
2022-11-17T22:14:22.935Z,11.50
2022-11-17T22:16:55.162Z,11.50
2022-11-17T22:19:27.781Z,11.50
2022-11-17T22:21:58.309Z,11.50
2022-11-17T22:24:30.937Z,11.50
2022-11-17T22:27:01.424Z,11.50
2022-11-17T22:29:31.956Z,11.40
2022-11-17T22:32:02.583Z,11.40
2022-11-17T22:34:33.482Z,11.40
2022-11-17T22:37:04.127Z,11.40
2022-11-17T22:39:34.658Z,11.40
2022-11-17T22:42:05.321Z,11.40
2022-11-17T22:44:35.912Z,11.40
2022-11-17T22:47:06.488Z,11.40
2022-11-17T22:49:37.122Z,11.40
2022-11-17T22:52:09.972Z,11.40
2022-11-17T22:54:40.622Z,11.40
2022-11-17T22:57:11.138Z,11.30
2022-11-17T22:59:41.677Z,11.40
2022-11-17T23:02:12.637Z,11.50
2022-11-17T23:04:43.227Z,11.50
2022-11-17T23:07:13.860Z,11.60
2022-11-17T23:09:44.453Z,11.80
2022-11-17T23:12:15.495Z,11.80
2022-11-17T23:14:46.097Z,11.80
2022-11-17T23:17:17.423Z,11.80
2022-11-17T23:19:48.001Z,11.70
2022-11-17T23:22:18.808Z,11.70
2022-11-17T23:24:49.448Z,11.70
2022-11-17T23:27:20.501Z,11.70
2022-11-17T23:29:51.041Z,11.70
2022-11-17T23:32:21.719Z,11.70
2022-11-17T23:34:52.372Z,11.70
2022-11-17T23:37:22.947Z,11.70
2022-11-17T23:39:53.794Z,11.70
2022-11-17T23:42:25.643Z,11.60
2022-11-17T23:44:56.530Z,11.60
2022-11-17T23:47:27.039Z,11.60
2022-11-17T23:49:57.629Z,11.60
2022-11-17T23:52:28.180Z,11.60
2022-11-17T23:54:58.744Z,11.50
2022-11-17T23:57:29.277Z,11.50
2022-11-17T23:59:59.848Z,11.50
